Time;durP1;ratioP1;P1;durP2;ratioP2;P2;SDS_P1;SDS_P2;PMS_P1;PMS_P2;Temp;Humidity;BMP_temperature;BMP_pressure;BME280_temperature;BME280_humidity;BME280_pressure;Samples;Min_cycle;Max_cycle;Signal;HPM_P1;HPM_P2
2023/01/08 00:01:29;;;;;;;0.20;0.20;;;;;;;7.01;100.00;95614.28;5030388;28;20045;-77
2023/01/08 00:04:18;;;;;;;0.17;0.17;;;;;;;7.03;100.00;95653.94;5032557;28;20327;-77
2023/01/08 00:07:04;;;;;;;0.20;0.20;;;;;;;7.02;100.00;95599.13;5035832;28;20037;-76
2023/01/08 00:09:51;;;;;;;0.20;0.20;;;;;;;7.06;100.00;95610.88;5036320;28;20729;-77
2023/01/08 00:12:36;;;;;;;0.20;0.20;;;;;;;7.04;100.00;95597.03;5021011;28;20060;-76
2023/01/08 00:15:22;;;;;;;0.20;0.20;;;;;;;7.02;100.00;95609.78;5032912;28;20044;-77
2023/01/08 00:18:08;;;;;;;0.20;0.20;;;;;;;7.02;100.00;95615.91;5035802;28;20886;-77
2023/01/08 00:20:54;;;;;;;0.20;0.20;;;;;;;7.06;100.00;95618.88;5034459;28;20562;-77
2023/01/08 00:23:40;;;;;;;0.20;0.20;;;;;;;7.07;100.00;95605.31;5034790;28;20041;-76
2023/01/08 00:26:25;;;;;;;0.10;0.10;;;;;;;7.02;100.00;95594.63;5033795;28;20388;-77
2023/01/08 00:29:12;;;;;;;0.10;0.10;;;;;;;7.07;100.00;95601.84;5047740;28;20040;-76
2023/01/08 00:31:57;;;;;;;0.10;0.10;;;;;;;7.07;100.00;95617.81;5031431;28;20052;-77
2023/01/08 00:34:43;;;;;;;0.20;0.20;;;;;;;7.06;100.00;95613.53;5034681;28;20145;-76
2023/01/08 00:37:30;;;;;;;0.20;0.20;;;;;;;7.09;100.00;95610.41;5031024;28;20376;-77
2023/01/08 00:40:16;;;;;;;0.10;0.10;;;;;;;7.09;100.00;95605.88;5035085;28;20056;-76
2023/01/08 00:43:02;;;;;;;0.20;0.20;;;;;;;7.04;100.00;95618.31;5034002;28;20041;-76
2023/01/08 00:45:50;;;;;;;0.10;0.10;;;;;;;7.17;100.00;95617.97;5034031;28;20045;-77
2023/01/08 00:48:37;;;;;;;0.20;0.20;;;;;;;7.15;100.00;95622.69;5033352;28;20091;-76
2023/01/08 00:51:25;;;;;;;0.20;0.20;;;;;;;7.14;100.00;95611.25;5019013;28;20131;-77
2023/01/08 00:54:10;;;;;;;0.10;0.10;;;;;;;7.12;100.00;95610.69;5033892;28;20068;-77
2023/01/08 00:56:56;;;;;;;0.20;0.20;;;;;;;7.21;100.00;95608.41;5024453;28;20266;-77
2023/01/08 00:59:42;;;;;;;0.20;0.20;;;;;;;7.23;100.00;95623.06;5032474;28;20369;-77
2023/01/08 01:02:28;;;;;;;0.20;0.20;;;;;;;7.22;100.00;95616.13;5032553;28;20030;-76
2023/01/08 01:05:15;;;;;;;0.10;0.10;;;;;;;7.29;100.00;95615.16;5032773;28;20051;-76
2023/01/08 01:08:01;;;;;;;0.13;0.13;;;;;;;7.32;100.00;95609.34;5020244;28;20649;-76
2023/01/08 01:10:47;;;;;;;0.10;0.10;;;;;;;7.40;100.00;95612.38;5031506;28;20044;-76
2023/01/08 01:13:33;;;;;;;0.20;0.20;;;;;;;7.38;100.00;95606.47;5033106;28;20045;-77
2023/01/08 01:16:19;;;;;;;0.20;0.20;;;;;;;7.44;100.00;95612.69;5032438;28;20345;-77
2023/01/08 01:19:04;;;;;;;0.10;0.10;;;;;;;7.40;100.00;95619.56;5020019;28;20044;-76
2023/01/08 01:21:50;;;;;;;0.20;0.20;;;;;;;7.31;100.00;95615.72;5029641;28;20279;-77
2023/01/08 01:24:36;;;;;;;0.10;0.10;;;;;;;7.35;100.00;95628.28;5019662;28;20076;-77
2023/01/08 01:27:24;;;;;;;0.20;0.20;;;;;;;7.32;100.00;95625.31;5032906;28;20314;-76
2023/01/08 01:30:10;;;;;;;0.10;0.10;;;;;;;7.39;100.00;95629.41;5033360;28;20052;-76
2023/01/08 01:32:56;;;;;;;0.20;0.20;;;;;;;7.33;100.00;95637.56;5032094;28;20111;-77
2023/01/08 01:35:42;;;;;;;0.20;0.20;;;;;;;7.30;100.00;95622.09;5033837;28;20044;-77
2023/01/08 01:38:28;;;;;;;0.20;0.20;;;;;;;7.30;100.00;95632.72;5017167;28;20257;-76
2023/01/08 01:41:27;;;;;;;0.10;0.10;;;;;;;7.35;100.00;95628.28;5033785;28;20481;-76
2023/01/08 01:44:38;;;;;;;0.20;0.20;;;;;;;7.35;100.00;95625.63;5031126;28;20037;-76
2023/01/08 01:47:38;;;;;;;0.20;0.20;;;;;;;7.21;100.00;95614.53;5031257;28;20036;-77
2023/01/08 01:50:53;;;;;;;0.20;0.20;;;;;;;7.29;100.00;95621.28;5031495;28;20270;-76
2023/01/08 01:53:40;;;;;;;0.10;0.10;;;;;;;7.30;100.00;95614.09;5032305;28;20473;-77
2023/01/08 01:56:28;;;;;;;0.10;0.10;;;;;;;7.24;100.00;95618.59;5011630;28;20057;-76
2023/01/08 01:59:14;;;;;;;0.20;0.20;;;;;;;7.25;100.00;95615.66;5012239;28;20144;-76
2023/01/08 02:02:10;;;;;;;0.20;0.20;;;;;;;7.32;100.00;95620.00;5012392;28;20522;-75
2023/01/08 02:04:59;;;;;;;0.10;0.10;;;;;;;7.23;100.00;95616.94;5014968;28;20040;-76
2023/01/08 02:07:47;;;;;;;0.10;0.10;;;;;;;7.28;100.00;95617.03;5012066;28;20081;-76
2023/01/08 02:10:46;;;;;;;0.10;0.10;;;;;;;7.33;100.00;95609.09;5010805;28;20539;-75
2023/01/08 02:13:38;;;;;;;0.15;0.15;;;;;;;7.35;100.00;95614.19;5023137;28;20056;-76
2023/01/08 02:16:23;;;;;;;;;;;;;;;7.39;100.00;95610.78;5010707;28;20672;-76
2023/01/08 02:19:41;;;;;;;0.10;0.10;;;;;;;7.38;100.00;95611.81;5014760;28;19916;-76
2023/01/08 02:22:45;;;;;;;0.15;0.15;;;;;;;7.29;100.00;95607.19;5011946;28;20028;-77
2023/01/08 02:26:04;;;;;;;0.10;0.10;;;;;;;7.23;100.00;95598.31;5012439;28;20308;-76
2023/01/08 02:29:02;;;;;;;0.20;0.20;;;;;;;7.15;100.00;95594.22;5011458;28;20110;-77
2023/01/08 02:31:48;;;;;;;0.20;0.20;;;;;;;7.11;100.00;95582.50;5011143;28;20098;-76
2023/01/08 02:34:34;;;;;;;0.10;0.10;;;;;;;7.02;100.00;95591.16;5011238;28;20033;-77
2023/01/08 02:37:20;;;;;;;0.20;0.20;;;;;;;7.01;100.00;95571.75;5012770;28;20037;-76
2023/01/08 02:40:50;;;;;;;0.10;0.10;;;;;;;7.01;100.00;95573.59;5011996;28;20618;-76
2023/01/08 02:43:47;;;;;;;0.10;0.10;;;;;;;6.91;100.00;95569.72;5012165;28;20049;-77
2023/01/08 02:46:36;;;;;;;0.10;0.10;;;;;;;6.89;100.00;95558.53;5011743;28;20029;-77
2023/01/08 02:49:27;;;;;;;0.10;0.10;;;;;;;6.84;100.00;95555.81;5012128;28;20326;-77
2023/01/08 02:52:17;;;;;;;0.10;0.10;;;;;;;6.83;100.00;95548.88;5009776;28;20130;-76
2023/01/08 02:55:03;;;;;;;0.20;0.20;;;;;;;6.83;100.00;95538.25;5011381;28;20048;-75
2023/01/08 02:57:50;;;;;;;0.20;0.20;;;;;;;6.82;100.00;95523.34;5028915;28;20051;-77
2023/01/08 03:00:38;;;;;;;0.17;0.17;;;;;;;6.80;100.00;95527.31;5032365;28;20041;-77
2023/01/08 03:03:26;;;;;;;0.20;0.20;;;;;;;6.82;100.00;95531.31;5035164;28;20389;-77
2023/01/08 03:06:16;;;;;;;0.15;0.15;;;;;;;6.76;100.00;95524.31;5031276;28;20041;-77
2023/01/08 03:09:04;;;;;;;0.10;0.10;;;;;;;6.68;100.00;95519.44;5031485;28;20394;-76
2023/01/08 03:11:56;;;;;;;0.17;0.17;;;;;;;6.73;100.00;95506.22;5023423;28;20159;-77
2023/01/08 03:14:45;;;;;;;;;;;;;;;6.69;100.00;95500.59;5032685;28;20051;-77
2023/01/08 03:17:36;;;;;;;0.20;0.20;;;;;;;6.66;100.00;95500.28;5034743;28;19974;-77
2023/01/08 03:20:23;;;;;;;;;;;;;;;6.68;100.00;95501.63;5032322;28;20033;-77
2023/01/08 03:23:11;;;;;;;0.17;0.17;;;;;;;6.61;100.00;95495.69;5030504;28;19912;-77
2023/01/08 03:26:01;;;;;;;0.10;0.10;;;;;;;6.67;100.00;95501.88;5032045;28;20460;-77
2023/01/08 03:28:52;;;;;;;0.17;0.17;;;;;;;6.58;100.00;95503.38;5042502;28;20146;-75
2023/01/08 03:31:39;;;;;;;0.20;0.20;;;;;;;6.59;100.00;95494.34;5029727;28;20444;-76
2023/01/08 03:34:29;;;;;;;0.20;0.20;;;;;;;6.60;100.00;95493.28;5031825;28;20041;-77
2023/01/08 03:37:20;;;;;;;0.10;0.10;;;;;;;6.58;100.00;95485.56;5030616;28;20052;-76
2023/01/08 03:40:16;;;;;;;0.20;0.20;;;;;;;6.67;100.00;95488.59;5034355;28;20080;-77
2023/01/08 03:43:02;;;;;;;0.20;0.20;;;;;;;6.59;100.00;95471.22;5037947;28;20045;-77
2023/01/08 03:45:53;;;;;;;0.20;0.20;;;;;;;6.68;100.00;95487.53;5035646;28;20052;-76
2023/01/08 03:48:40;;;;;;;0.10;0.10;;;;;;;6.62;100.00;95483.22;5020295;28;20344;-77
2023/01/08 03:51:25;;;;;;;0.10;0.10;;;;;;;6.66;100.00;95487.78;5033081;28;20041;-77
2023/01/08 03:54:22;;;;;;;0.10;0.10;;;;;;;6.63;100.00;95484.84;5032000;28;20044;-76
2023/01/08 03:57:08;;;;;;;0.10;0.10;;;;;;;6.59;100.00;95479.19;5034422;28;20052;-77
2023/01/08 03:59:54;;;;;;;0.15;0.15;;;;;;;6.61;100.00;95481.59;5033108;28;20041;-77
2023/01/08 04:02:41;;;;;;;0.20;0.20;;;;;;;6.63;100.00;95490.16;5034698;28;20044;-78
2023/01/08 04:05:27;;;;;;;0.10;0.10;;;;;;;6.59;100.00;95489.03;5018350;28;20049;-77
2023/01/08 04:08:12;;;;;;;0.13;0.13;;;;;;;6.56;100.00;95484.22;5033550;28;20087;-77
2023/01/08 04:10:58;;;;;;;0.10;0.10;;;;;;;6.61;100.00;95479.75;5021002;28;20124;-77
2023/01/08 04:13:44;;;;;;;0.10;0.10;;;;;;;6.61;100.00;95481.59;5033826;28;20036;-77
2023/01/08 04:16:30;;;;;;;0.20;0.20;;;;;;;6.60;100.00;95478.13;5034479;28;20791;-78
2023/01/08 04:19:16;;;;;;;0.20;0.20;;;;;;;6.53;100.00;95471.38;5034785;28;20439;-76
2023/01/08 04:22:02;;;;;;;0.20;0.20;;;;;;;6.50;100.00;95474.56;5046657;28;20326;-77
2023/01/08 04:24:51;;;;;;;0.20;0.20;;;;;;;6.49;100.00;95473.75;5022739;28;20048;-77
2023/01/08 04:27:40;;;;;;;0.10;0.10;;;;;;;6.53;100.00;95471.38;5033577;28;20318;-77
2023/01/08 04:30:26;;;;;;;0.20;0.20;;;;;;;6.60;100.00;95477.34;5032740;28;20049;-77
2023/01/08 04:33:12;;;;;;;0.13;0.13;;;;;;;6.54;100.00;95470.38;5018701;28;21176;-75
2023/01/08 04:35:58;;;;;;;0.17;0.17;;;;;;;6.55;100.00;95478.09;5033928;28;20132;-77
2023/01/08 04:38:43;;;;;;;0.20;0.20;;;;;;;6.51;100.00;95476.97;5034470;28;20044;-77
2023/01/08 04:41:29;;;;;;;0.17;0.17;;;;;;;6.53;100.00;95474.06;5035088;28;20040;-77
2023/01/08 04:44:15;;;;;;;0.10;0.10;;;;;;;6.47;100.00;95464.44;5034275;28;20039;-77
2023/01/08 04:47:01;;;;;;;0.17;0.10;;;;;;;6.50;100.00;95459.41;5033828;28;20049;-77
2023/01/08 04:49:47;;;;;;;0.10;0.10;;;;;;;6.37;100.00;95444.63;5032462;28;20140;-76
2023/01/08 04:52:33;;;;;;;0.17;0.17;;;;;;;6.29;100.00;95450.38;5030342;28;20044;-78
2023/01/08 04:55:19;;;;;;;0.20;0.20;;;;;;;6.45;100.00;95443.38;5022915;28;20326;-77
2023/01/08 04:58:05;;;;;;;0.20;0.20;;;;;;;6.46;100.00;95442.38;5022434;28;20051;-77
2023/01/08 05:00:51;;;;;;;0.20;0.20;;;;;;;6.32;100.00;95430.47;5031874;28;20048;-76
2023/01/08 05:03:37;;;;;;;0.10;0.10;;;;;;;6.37;100.00;95439.31;5033972;28;20036;-78
2023/01/08 05:06:24;;;;;;;0.20;0.20;;;;;;;6.45;100.00;95429.31;5035446;28;20075;-77
2023/01/08 05:09:10;;;;;;;0.20;0.20;;;;;;;6.37;100.00;95441.97;5034146;28;20048;-76
2023/01/08 05:11:56;;;;;;;0.10;0.10;;;;;;;6.44;100.00;95433.81;5035880;28;20380;-77
2023/01/08 05:14:42;;;;;;;0.15;0.15;;;;;;;6.39;100.00;95434.56;5034012;28;20888;-78
2023/01/08 05:17:28;;;;;;;0.13;0.13;;;;;;;6.40;100.00;95424.75;5036628;28;20354;-76
2023/01/08 05:20:14;;;;;;;0.20;0.20;;;;;;;6.36;100.00;95421.75;5035458;28;20060;-76
2023/01/08 05:23:00;;;;;;;0.20;0.20;;;;;;;6.32;100.00;95433.16;5035422;28;20066;-76
2023/01/08 05:25:46;;;;;;;0.10;0.10;;;;;;;6.38;100.00;95434.78;5040505;28;20364;-75
2023/01/08 05:28:32;;;;;;;0.13;0.13;;;;;;;6.35;100.00;95441.41;5033785;28;20127;-76
2023/01/08 05:31:18;;;;;;;0.20;0.20;;;;;;;6.34;100.00;95437.16;5045334;28;20223;-75
2023/01/08 05:34:04;;;;;;;0.10;0.10;;;;;;;6.24;100.00;95437.03;5035613;28;20033;-74
2023/01/08 05:36:50;;;;;;;0.10;0.10;;;;;;;6.29;100.00;95452.22;5019852;28;20246;-75
2023/01/08 05:39:36;;;;;;;0.10;0.10;;;;;;;6.22;100.00;95439.09;5033669;28;20136;-77
2023/01/08 05:42:22;;;;;;;0.17;0.17;;;;;;;6.21;100.00;95434.84;5034975;28;20032;-76
2023/01/08 05:45:08;;;;;;;0.20;0.20;;;;;;;6.13;100.00;95437.94;5032737;28;20116;-76
2023/01/08 05:47:54;;;;;;;0.13;0.13;;;;;;;6.10;100.00;95438.44;5032954;28;21472;-77
2023/01/08 05:50:40;;;;;;;0.20;0.20;;;;;;;6.08;100.00;95438.69;5032758;28;20327;-77
2023/01/08 05:53:25;;;;;;;0.17;0.17;;;;;;;6.10;100.00;95436.56;5035318;28;20167;-77
2023/01/08 05:56:13;;;;;;;0.17;0.17;;;;;;;6.05;100.00;95444.47;5034170;28;20072;-77
2023/01/08 05:58:59;;;;;;;0.15;0.15;;;;;;;6.05;100.00;95433.03;5034831;28;20219;-76
2023/01/08 06:01:45;;;;;;;0.20;0.20;;;;;;;6.06;100.00;95429.31;5029409;28;20116;-76
2023/01/08 06:04:30;;;;;;;0.20;0.20;;;;;;;6.08;100.00;95430.72;5007645;28;20071;-76
2023/01/08 06:07:16;;;;;;;0.20;0.20;;;;;;;6.05;100.00;95435.69;5029655;28;20540;-76
2023/01/08 06:10:03;;;;;;;0.13;0.13;;;;;;;6.00;100.00;95430.31;5033071;28;20219;-76
2023/01/08 06:12:48;;;;;;;0.20;0.20;;;;;;;6.07;100.00;95442.38;5033339;28;20068;-76
2023/01/08 06:15:37;;;;;;;0.10;0.10;;;;;;;6.10;100.00;95433.13;5015472;28;20028;-76
2023/01/08 06:18:23;;;;;;;0.10;0.10;;;;;;;6.01;100.00;95427.41;5033330;28;20429;-76
2023/01/08 06:21:09;;;;;;;0.10;0.10;;;;;;;6.05;100.00;95435.69;5034203;28;20108;-75
2023/01/08 06:23:55;;;;;;;0.20;0.20;;;;;;;5.98;100.00;95435.84;5016774;28;20051;-76
2023/01/08 06:26:41;;;;;;;0.20;0.20;;;;;;;6.07;100.00;95434.41;5021405;28;20565;-77
2023/01/08 06:29:26;;;;;;;0.20;0.20;;;;;;;6.06;100.00;95439.94;5033517;28;20447;-75
2023/01/08 06:32:12;;;;;;;0.20;0.20;;;;;;;6.00;100.00;95430.31;5032098;28;20033;-77
2023/01/08 06:34:58;;;;;;;0.20;0.20;;;;;;;6.06;100.00;95422.16;5031895;28;20441;-75
2023/01/08 06:37:44;;;;;;;0.20;0.20;;;;;;;6.02;100.00;95436.19;5031119;28;20080;-76
2023/01/08 06:40:30;;;;;;;0.17;0.17;;;;;;;6.12;100.00;95431.00;5033764;28;20553;-78
2023/01/08 06:43:16;;;;;;;0.10;0.10;;;;;;;6.21;100.00;95421.56;5032995;28;20334;-78
2023/01/08 06:46:04;;;;;;;0.20;0.20;;;;;;;6.11;100.00;95429.41;5035076;28;20040;-75
2023/01/08 06:48:52;;;;;;;0.20;0.20;;;;;;;6.12;100.00;95436.31;5034639;28;20385;-75
2023/01/08 06:51:38;;;;;;;0.13;0.13;;;;;;;6.20;100.00;95430.59;5022583;28;20527;-76
2023/01/08 06:54:24;;;;;;;0.13;0.13;;;;;;;6.15;100.00;95427.88;5031865;28;20499;-76
2023/01/08 06:57:09;;;;;;;0.20;0.20;;;;;;;6.11;100.00;95435.53;5034883;28;20638;-75
2023/01/08 06:59:55;;;;;;;0.20;0.20;;;;;;;6.09;100.00;95450.91;5018245;28;20682;-76
2023/01/08 07:02:41;;;;;;;0.10;0.10;;;;;;;6.07;100.00;95446.88;5050680;28;20151;-78
2023/01/08 07:05:27;;;;;;;0.20;0.20;;;;;;;6.05;100.00;95441.00;5053673;28;20044;-76
2023/01/08 07:08:14;;;;;;;0.10;0.10;;;;;;;6.06;100.00;95435.44;5055250;28;20043;-78
2023/01/08 07:11:03;;;;;;;0.10;0.10;;;;;;;6.10;100.00;95435.78;5040874;28;20052;-77
2023/01/08 07:13:49;;;;;;;0.20;0.20;;;;;;;6.05;100.00;95452.44;5031968;28;20075;-75
2023/01/08 07:16:35;;;;;;;0.10;0.10;;;;;;;6.05;100.00;95443.66;5070077;28;20056;-75
2023/01/08 07:19:21;;;;;;;0.20;0.20;;;;;;;6.05;100.00;95435.69;5028202;28;20059;-77
2023/01/08 07:22:07;;;;;;;0.10;0.10;;;;;;;6.11;100.00;95434.72;5056096;28;20719;-77
2023/01/08 07:24:53;;;;;;;0.10;0.10;;;;;;;6.09;100.00;95434.97;5054998;28;20049;-77
2023/01/08 07:27:39;;;;;;;0.13;0.13;;;;;;;6.13;100.00;95437.94;5037134;28;20509;-78
2023/01/08 07:30:25;;;;;;;0.10;0.10;;;;;;;6.10;100.00;95443.75;5066746;28;20532;-75
2023/01/08 07:33:11;;;;;;;0.13;0.13;;;;;;;6.11;100.00;95424.09;5055476;28;20044;-77
2023/01/08 07:35:57;;;;;;;0.20;0.20;;;;;;;6.12;100.00;95449.59;5053495;28;20127;-77
2023/01/08 07:38:43;;;;;;;0.10;0.10;;;;;;;6.14;100.00;95440.31;5059820;28;20828;-77
2023/01/08 07:41:29;;;;;;;0.17;0.17;;;;;;;6.09;100.00;95432.31;5059555;28;20651;-77
2023/01/08 07:44:16;;;;;;;0.10;0.10;;;;;;;6.13;100.00;95427.31;5043262;28;20048;-78
2023/01/08 07:47:01;;;;;;;0.20;0.20;;;;;;;6.24;100.00;95444.19;5057098;28;20193;-76
2023/01/08 07:49:47;;;;;;;0.10;0.10;;;;;;;6.20;100.00;95433.25;5055607;28;20503;-78
2023/01/08 07:52:33;;;;;;;0.15;0.15;;;;;;;6.21;100.00;95434.03;5058128;28;20568;-77
2023/01/08 07:55:19;;;;;;;0.20;0.20;;;;;;;6.27;100.00;95438.38;5057966;28;20404;-77
2023/01/08 07:58:09;;;;;;;0.10;0.10;;;;;;;6.26;100.00;95436.78;5042802;28;20057;-77
2023/01/08 08:00:56;;;;;;;0.20;0.20;;;;;;;6.25;100.00;95440.50;5041568;28;20056;-78
2023/01/08 08:03:42;;;;;;;0.10;0.10;;;;;;;6.30;100.00;95448.50;5058204;28;20048;-78
2023/01/08 08:06:29;;;;;;;0.17;0.17;;;;;;;6.31;100.00;95435.00;4734216;28;10000826;-76
2023/01/08 08:09:15;;;;;;;0.20;0.20;;;;;;;6.21;100.00;95434.84;4705715;28;10000125;-78
2023/01/08 08:12:01;;;;;;;0.10;0.10;;;;;;;6.20;100.00;95438.56;5052817;28;20049;-78
2023/01/08 08:14:47;;;;;;;0.10;0.10;;;;;;;6.27;100.00;95433.88;5054202;28;20043;-78
2023/01/08 08:17:32;;;;;;;0.13;0.13;;;;;;;6.21;100.00;95434.84;5059054;28;20043;-78
2023/01/08 08:20:18;;;;;;;0.13;0.13;;;;;;;6.24;100.00;95442.34;5053928;28;20046;-76
2023/01/08 08:23:09;;;;;;;0.20;0.20;;;;;;;6.15;100.00;95443.81;5046283;28;20665;-75
2023/01/08 08:25:55;;;;;;;0.20;0.20;;;;;;;6.14;100.00;95436.88;5041322;28;20133;-76
2023/01/08 08:28:41;;;;;;;0.20;0.20;;;;;;;6.18;100.00;95427.38;5054326;28;20545;-76
2023/01/08 08:31:27;;;;;;;0.20;0.20;;;;;;;6.16;100.00;95436.66;5039009;28;20829;-76
2023/01/08 08:34:13;;;;;;;0.20;0.20;;;;;;;6.19;100.00;95436.94;5054788;28;20757;-76
2023/01/08 08:36:58;;;;;;;0.10;0.10;;;;;;;6.21;100.00;95440.16;5055118;28;20113;-75
2023/01/08 08:39:46;;;;;;;0.20;0.20;;;;;;;6.24;100.00;95415.78;5052046;28;20088;-74
2023/01/08 08:42:32;;;;;;;0.20;0.20;;;;;;;6.22;100.00;95417.84;5053950;28;20032;-76
2023/01/08 08:45:18;;;;;;;0.10;0.10;;;;;;;6.21;100.00;95439.34;5054218;28;20504;-77
2023/01/08 08:48:05;;;;;;;0.20;0.20;;;;;;;6.19;100.00;95431.63;5051997;28;20044;-76
2023/01/08 08:50:52;;;;;;;0.20;0.20;;;;;;;6.25;100.00;95441.28;5052146;28;20044;-76
2023/01/08 08:53:37;;;;;;;0.10;0.10;;;;;;;6.31;100.00;95440.31;5055721;28;20573;-77
2023/01/08 08:56:23;;;;;;;0.20;0.20;;;;;;;6.42;100.00;95433.25;5053147;28;20113;-77
2023/01/08 08:59:11;;;;;;;0.20;0.20;;;;;;;6.35;100.00;95441.41;5046145;28;20071;-77
2023/01/08 09:02:00;;;;;;;0.20;0.20;;;;;;;6.27;100.00;95436.53;5053824;28;20489;-77
2023/01/08 09:04:46;;;;;;;0.13;0.13;;;;;;;6.46;100.00;95430.91;5037496;28;20045;-77
2023/01/08 09:07:32;;;;;;;0.20;0.20;;;;;;;6.54;100.00;95426.00;5055183;28;20044;-77
2023/01/08 09:10:17;;;;;;;0.20;0.20;;;;;;;6.56;100.00;95436.38;5053651;28;20036;-77
2023/01/08 09:13:03;;;;;;;0.20;0.20;;;;;;;6.53;100.00;95429.66;5053281;28;20402;-77
2023/01/08 09:15:49;;;;;;;0.20;0.20;;;;;;;6.59;100.00;95433.19;5053093;28;20093;-77
2023/01/08 09:18:35;;;;;;;0.15;0.15;;;;;;;6.51;100.00;95428.31;5056636;28;20361;-76
2023/01/08 09:21:21;;;;;;;0.15;0.15;;;;;;;6.50;100.00;95426.72;5053747;28;20049;-77
2023/01/08 09:24:07;;;;;;;0.10;0.10;;;;;;;6.53;100.00;95428.88;5039636;28;20074;-77
2023/01/08 09:26:53;;;;;;;0.10;0.10;;;;;;;6.56;100.00;95425.72;5054867;28;20040;-76
2023/01/08 09:29:39;;;;;;;0.15;0.15;;;;;;;6.47;100.00;95430.69;5054819;28;20123;-77
2023/01/08 09:32:25;;;;;;;0.20;0.20;;;;;;;6.43;100.00;95422.38;5049592;28;20261;-77
2023/01/08 09:35:11;;;;;;;0.20;0.20;;;;;;;6.44;100.00;95417.88;5055865;28;20055;-77
2023/01/08 09:37:57;;;;;;;0.10;0.10;;;;;;;6.34;100.00;95418.56;5052884;28;20398;-77
2023/01/08 09:40:55;;;;;;;0.20;0.20;;;;;;;6.38;100.00;95422.34;5053715;28;20046;-77
2023/01/08 09:43:45;;;;;;;0.10;0.10;;;;;;;6.50;100.00;95426.72;5054313;28;20040;-79
2023/01/08 09:46:33;;;;;;;0.10;0.10;;;;;;;6.47;100.00;95422.72;5041726;28;20036;-77
2023/01/08 09:49:29;;;;;;;0.20;0.20;;;;;;;6.48;100.00;95428.81;5053028;28;20052;-77
2023/01/08 09:52:15;;;;;;;0.20;0.20;;;;;;;6.47;100.00;95421.91;5052150;28;20401;-78
2023/01/08 09:55:01;;;;;;;0.10;0.10;;;;;;;6.39;100.00;95420.47;5062383;28;20291;-78
2023/01/08 09:57:48;;;;;;;0.10;0.10;;;;;;;6.36;100.00;95424.41;5037582;28;20057;-77
2023/01/08 10:00:34;;;;;;;0.10;0.10;;;;;;;6.41;100.00;95421.84;5050493;28;20393;-78
2023/01/08 10:03:26;;;;;;;0.20;0.20;;;;;;;6.51;100.00;95418.50;5054746;28;20178;-79
2023/01/08 10:06:14;;;;;;;0.20;0.20;;;;;;;6.43;100.00;95406.44;5054652;28;20066;-79
2023/01/08 10:09:00;;;;;;;0.13;0.13;;;;;;;6.64;100.00;95402.16;5052065;28;20550;-79
2023/01/08 10:11:48;;;;;;;0.20;0.20;;;;;;;6.75;100.00;95403.06;5052800;28;20564;-78
2023/01/08 10:14:36;;;;;;;0.20;0.20;;;;;;;6.66;100.00;95399.25;5035790;28;20064;-79
2023/01/08 10:17:26;;;;;;;0.15;0.15;;;;;;;6.63;100.00;95389.13;5054621;28;20094;-77
2023/01/08 10:20:18;;;;;;;0.20;0.20;;;;;;;6.63;100.00;95399.75;5052179;28;20507;-77
2023/01/08 10:23:30;;;;;;;0.10;0.10;;;;;;;6.69;100.00;95393.44;5049312;28;20560;-78
2023/01/08 10:26:37;;;;;;;0.20;0.20;;;;;;;6.83;100.00;95372.56;5039272;28;20197;-79
2023/01/08 10:29:24;;;;;;;0.20;0.20;;;;;;;6.87;100.00;95379.00;5051823;28;20562;-77
2023/01/08 10:32:15;;;;;;;0.20;0.20;;;;;;;6.78;100.00;95364.56;5050215;28;20044;-77
2023/01/08 10:35:03;;;;;;;;;;;;;;;6.81;100.00;95370.16;5051153;28;20040;-78
2023/01/08 10:37:49;;;;;;;0.20;0.20;;;;;;;6.68;100.00;95378.53;5038311;28;20370;-78
2023/01/08 10:40:46;;;;;;;0.20;0.20;;;;;;;6.58;100.00;95370.47;5052902;28;20833;-76
2023/01/08 10:43:48;;;;;;;0.20;0.20;;;;;;;6.49;100.00;95364.78;5050578;28;20238;-77
2023/01/08 10:46:47;;;;;;;0.20;0.20;;;;;;;6.42;100.00;95364.16;5052676;28;20608;-78
2023/01/08 10:49:42;;;;;;;0.25;0.25;;;;;;;6.63;100.00;95357.22;5052186;28;20499;-78
2023/01/08 10:52:31;;;;;;;0.13;0.13;;;;;;;6.65;100.00;95355.91;5053385;28;20145;-78
2023/01/08 10:55:23;;;;;;;0.20;0.20;;;;;;;6.62;100.00;95345.81;5051649;28;20159;-76
2023/01/08 10:58:09;;;;;;;0.20;0.20;;;;;;;6.73;100.00;95341.38;5040989;28;20591;-76
2023/01/08 11:01:12;;;;;;;0.20;0.20;;;;;;;6.91;100.00;95346.31;5040127;28;20133;-78
2023/01/08 11:04:00;;;;;;;0.20;0.20;;;;;;;7.14;100.00;95339.88;5052972;28;20123;-78
2023/01/08 11:06:47;;;;;;;0.20;0.20;;;;;;;7.29;100.00;95328.56;5054609;28;20160;-78
2023/01/08 11:09:44;;;;;;;0.20;0.20;;;;;;;7.23;100.00;95326.91;5054690;28;20603;-77
2023/01/08 11:12:34;;;;;;;0.20;0.20;;;;;;;7.24;100.00;95320.56;5055119;28;20047;-78
2023/01/08 11:15:20;;;;;;;0.20;0.20;;;;;;;7.64;100.00;95311.25;5052302;28;20044;-79
2023/01/08 11:18:24;;;;;;;0.20;0.20;;;;;;;7.25;100.00;95317.63;5053714;28;20036;-79
2023/01/08 11:21:21;;;;;;;0.10;0.10;;;;;;;7.08;100.00;95313.47;5037533;28;20523;-77
2023/01/08 11:24:18;;;;;;;0.10;0.10;;;;;;;6.97;100.00;95304.63;5054002;28;20464;-78
2023/01/08 11:27:15;;;;;;;0.20;0.20;;;;;;;7.22;100.00;95306.69;5054364;28;20042;-77
2023/01/08 11:30:24;;;;;;;0.20;0.20;;;;;;;7.86;100.00;95295.09;5065465;28;20147;-77
2023/01/08 11:33:15;;;;;;;0.20;0.20;;;;;;;7.97;100.00;95291.44;5051586;28;20052;-78
2023/01/08 11:36:11;;;;;;;0.20;0.20;;;;;;;8.46;100.00;95273.22;5037778;28;20283;-79
2023/01/08 11:38:57;;;;;;;0.30;0.30;;;;;;;10.19;100.00;95269.53;5039992;28;20399;-79
2023/01/08 11:42:01;;;;;;;0.10;0.10;;;;;;;10.05;100.00;95266.69;4701996;28;10000095;-80
2023/01/08 11:44:53;;;;;;;0.20;0.20;;;;;;;9.44;100.00;95270.31;5049842;28;20563;-79
2023/01/08 11:48:06;;;;;;;0.20;0.20;;;;;;;9.00;100.00;95262.09;5052470;28;20052;-79
2023/01/08 11:51:25;;;;;;;0.10;0.10;;;;;;;8.44;100.00;95267.34;5048511;28;20249;-80
2023/01/08 11:54:23;;;;;;;0.20;0.20;;;;;;;8.55;100.00;95260.97;5051526;28;20043;-77
2023/01/08 11:57:30;;;;;;;0.20;0.20;;;;;;;8.52;100.00;95253.50;5050544;28;20405;-77
2023/01/08 12:00:31;;;;;;;0.10;0.10;;;;;;;8.15;100.00;95245.66;5051875;28;20260;-78
2023/01/08 12:03:39;;;;;;;0.20;0.20;;;;;;;7.89;100.00;95250.09;5055345;28;20051;-79
2023/01/08 12:06:39;;;;;;;0.20;0.20;;;;;;;7.65;100.00;95246.28;5052379;28;20044;-77
2023/01/08 12:09:47;;;;;;;0.20;0.20;;;;;;;7.57;100.00;95244.91;5054018;28;20566;-77
2023/01/08 12:12:48;;;;;;;0.10;0.10;;;;;;;7.51;100.00;95246.72;5055294;28;20343;-77
2023/01/08 12:15:57;;;;;;;0.20;0.20;;;;;;;7.15;100.00;95236.94;5054366;28;20951;-78
2023/01/08 12:19:01;;;;;;;0.20;0.20;;;;;;;7.02;100.00;95248.81;5056562;28;20649;-78
2023/01/08 12:22:05;;;;;;;0.20;0.20;;;;;;;7.22;100.00;95240.97;5039675;28;20344;-78
2023/01/08 12:25:18;;;;;;;0.10;0.10;;;;;;;6.90;100.00;95235.69;5052526;28;20461;-76
2023/01/08 12:28:22;;;;;;;0.20;0.20;;;;;;;6.97;100.00;95244.25;5052450;28;20213;-76
2023/01/08 12:31:24;;;;;;;0.20;0.20;;;;;;;6.90;100.00;95232.22;5054344;28;20036;-78
2023/01/08 12:34:17;;;;;;;0.10;0.10;;;;;;;7.15;100.00;95226.28;5054822;28;20040;-77
2023/01/08 12:37:18;;;;;;;0.20;0.20;;;;;;;7.33;100.00;95212.56;5054330;28;20071;-79
2023/01/08 12:40:21;;;;;;;;;;;;;;;8.52;100.00;95207.38;5050614;28;20044;-77
2023/01/08 12:43:23;;;;;;;0.10;0.10;;;;;;;7.90;100.00;95198.44;5053419;28;20767;-77
2023/01/08 12:46:14;;;;;;;0.20;0.20;;;;;;;7.58;100.00;95198.59;5052064;28;20048;-78
2023/01/08 12:49:03;;;;;;;0.20;0.20;;;;;;;8.26;100.00;95199.34;5054370;28;20245;-78
2023/01/08 12:51:58;;;;;;;0.20;0.20;;;;;;;8.85;100.00;95190.06;5039925;28;20037;-79
2023/01/08 12:54:58;;;;;;;0.20;0.20;;;;;;;8.28;100.00;95191.06;5039371;28;20043;-77
2023/01/08 12:58:16;;;;;;;0.25;0.25;;;;;;;7.65;100.00;95207.13;5054616;28;20468;-80
2023/01/08 13:01:20;;;;;;;0.20;0.20;;;;;;;7.58;100.00;95197.78;5054923;28;20056;-76
2023/01/08 13:04:09;;;;;;;0.20;0.20;;;;;;;7.41;100.00;95196.13;5055626;28;20129;-78
2023/01/08 13:06:57;;;;;;;0.10;0.10;;;;;;;7.35;100.00;95189.16;5053973;28;20131;-77
2023/01/08 13:09:44;;;;;;;0.10;0.10;;;;;;;7.16;100.00;95180.00;5057557;28;20039;-79
2023/01/08 13:12:40;;;;;;;0.10;0.10;;;;;;;7.09;100.00;95182.09;5056574;28;20036;-78
2023/01/08 13:15:28;;;;;;;0.15;0.15;;;;;;;7.11;100.00;95178.13;5056410;28;20071;-77
2023/01/08 13:18:17;;;;;;;0.20;0.20;;;;;;;6.89;100.00;95183.56;5041651;28;20048;-79
2023/01/08 13:21:04;;;;;;;0.20;0.20;;;;;;;6.86;100.00;95172.66;5052642;28;20429;-77